createdAt,value
2022-11-29T00:02:20.013Z,28.70
2022-11-29T00:05:22.012Z,30.77
2022-11-29T00:08:24.460Z,27.83
2022-11-29T00:11:48.162Z,33.72
2022-11-29T00:14:49.820Z,28.73
2022-11-29T00:17:51.503Z,26.75
2022-11-29T00:20:53.229Z,26.60
2022-11-29T00:23:55.369Z,29.13
2022-11-29T00:26:57.059Z,31.13
2022-11-29T00:29:58.876Z,29.25
2022-11-29T00:33:00.623Z,32.40
2022-11-29T00:36:02.330Z,28.25
2022-11-29T00:39:05.178Z,27.52
2022-11-29T00:42:07.512Z,29.50
2022-11-29T00:45:09.632Z,28.13
2022-11-29T00:48:11.549Z,32.17
2022-11-29T00:51:13.525Z,28.58
2022-11-29T00:54:15.911Z,28.92
2022-11-29T00:57:17.615Z,29.45
2022-11-29T01:00:19.433Z,32.63
2022-11-29T01:03:21.210Z,28.60
2022-11-29T01:06:23.039Z,29.83
2022-11-29T01:09:24.683Z,33.47
2022-11-29T01:12:26.411Z,27.20
2022-11-29T01:15:28.483Z,32.38
2022-11-29T01:18:30.673Z,34.17
2022-11-29T01:21:32.494Z,32.08
2022-11-29T01:24:34.210Z,33.60
2022-11-29T01:27:35.915Z,32.08
2022-11-29T01:30:37.973Z,38.05
2022-11-29T01:33:39.855Z,35.10
2022-11-29T01:36:41.422Z,29.73
2022-11-29T01:39:43.169Z,34.08
2022-11-29T01:42:44.818Z,26.05
2022-11-29T01:45:46.515Z,30.65
2022-11-29T01:48:49.412Z,25.95
2022-11-29T01:51:54.567Z,29.52
2022-11-29T01:55:00.250Z,29.00
2022-11-29T01:58:01.929Z,28.02
2022-11-29T02:01:03.853Z,29.15
2022-11-29T02:04:06.580Z,31.33
2022-11-29T02:07:08.357Z,25.90
2022-11-29T02:10:10.540Z,27.75
2022-11-29T02:13:56.992Z,28.42
2022-11-29T02:17:03.442Z,28.40
2022-11-29T02:20:11.622Z,25.38
2022-11-29T02:23:25.370Z,30.75
2022-11-29T02:27:14.739Z,31.30
2022-11-29T02:30:21.578Z,30.92
2022-11-29T02:33:57.483Z,29.15
2022-11-29T02:37:28.925Z,31.73
2022-11-29T02:40:50.059Z,32.20
2022-11-29T02:44:22.325Z,24.65
2022-11-29T02:48:01.815Z,28.95
2022-11-29T02:51:18.525Z,25.60
2022-11-29T02:54:33.380Z,28.38
2022-11-29T02:57:59.988Z,30.15
2022-11-29T03:01:13.066Z,33.13
2022-11-29T03:04:33.705Z,28.55
2022-11-29T03:08:00.265Z,25.65
2022-11-29T03:11:23.662Z,30.20
2022-11-29T03:14:28.719Z,24.05
2022-11-29T03:17:48.595Z,28.38
2022-11-29T03:21:23.523Z,30.52
2022-11-29T03:24:37.137Z,25.95
2022-11-29T03:30:57.408Z,19.98
2022-11-29T03:34:13.269Z,21.20
2022-11-29T03:37:29.940Z,28.58
2022-11-29T03:40:42.332Z,24.15
2022-11-29T03:44:05.772Z,30.20
2022-11-29T03:47:18.336Z,25.90
2022-11-29T03:50:29.282Z,29.10
2022-11-29T03:53:57.341Z,25.08
2022-11-29T03:57:01.937Z,24.63
2022-11-29T04:00:13.455Z,26.00
2022-11-29T04:03:40.103Z,26.60
2022-11-29T04:07:22.911Z,28.80
2022-11-29T04:10:52.137Z,26.80
2022-11-29T04:14:16.925Z,25.58
2022-11-29T04:17:37.186Z,22.00
2022-11-29T04:21:06.873Z,22.80
2022-11-29T04:24:47.131Z,28.95
2022-11-29T04:28:06.792Z,22.17
2022-11-29T04:31:28.511Z,26.48
2022-11-29T04:34:48.227Z,25.75
2022-11-29T04:38:20.069Z,23.35
2022-11-29T04:41:43.116Z,28.05
2022-11-29T04:44:50.955Z,31.33
2022-11-29T04:48:24.708Z,26.52
2022-11-29T04:51:41.343Z,27.38
2022-11-29T04:55:04.534Z,26.10
2022-11-29T04:58:28.134Z,26.88
2022-11-29T05:01:46.488Z,24.70
2022-11-29T05:04:56.208Z,29.00
2022-11-29T05:08:22.336Z,25.67
2022-11-29T05:11:44.509Z,29.05
2022-11-29T05:15:07.691Z,28.85
2022-11-29T05:18:12.209Z,26.30
2022-11-29T05:21:37.057Z,28.60
2022-11-29T05:24:54.020Z,26.75
2022-11-29T05:27:58.787Z,30.10
2022-11-29T05:31:38.723Z,29.00
2022-11-29T05:34:49.233Z,31.52
2022-11-29T05:37:56.989Z,28.73
2022-11-29T05:41:20.408Z,27.17
2022-11-29T05:44:38.138Z,26.30
2022-11-29T05:47:50.314Z,28.60
2022-11-29T05:51:21.157Z,33.13
2022-11-29T05:54:35.607Z,28.15
2022-11-29T05:58:00.779Z,28.80
2022-11-29T06:01:26.172Z,28.02
2022-11-29T06:05:24.109Z,28.25
2022-11-29T06:08:50.111Z,27.35
2022-11-29T06:12:14.859Z,22.38
2022-11-29T06:15:30.233Z,25.45
2022-11-29T06:18:50.285Z,28.63
2022-11-29T06:22:20.957Z,26.27
2022-11-29T06:26:04.117Z,27.02
2022-11-29T06:29:22.145Z,24.00
2022-11-29T06:32:55.485Z,27.50
2022-11-29T06:36:17.349Z,20.95
2022-11-29T06:39:19.167Z,24.30
2022-11-29T06:42:20.811Z,24.90
2022-11-29T06:45:22.681Z,25.38
2022-11-29T06:48:27.200Z,29.55
2022-11-29T06:51:36.163Z,28.48
2022-11-29T06:55:02.822Z,27.13
2022-11-29T06:58:10.743Z,28.63
2022-11-29T07:01:19.579Z,27.35
2022-11-29T07:04:45.644Z,25.90
2022-11-29T07:07:48.803Z,29.75
2022-11-29T07:10:54.136Z,26.13
2022-11-29T07:13:56.552Z,27.65
2022-11-29T07:17:20.574Z,30.92
2022-11-29T07:21:09.249Z,32.65
2022-11-29T07:24:26.374Z,31.70
2022-11-29T07:27:37.208Z,39.90
2022-11-29T07:30:57.222Z,35.55
2022-11-29T07:34:17.682Z,42.15
2022-11-29T07:37:40.899Z,35.58
2022-11-29T07:41:04.061Z,36.47
2022-11-29T07:44:49.395Z,35.45
2022-11-29T07:47:51.604Z,38.22
2022-11-29T07:50:54.988Z,34.35
2022-11-29T07:53:56.815Z,40.10
2022-11-29T07:56:58.421Z,37.75
2022-11-29T08:00:00.538Z,53.50
2022-11-29T08:03:02.197Z,47.60
2022-11-29T08:06:04.091Z,41.00
2022-11-29T08:09:10.659Z,43.72
2022-11-29T08:12:12.309Z,42.30
2022-11-29T08:15:14.245Z,49.97
2022-11-29T08:18:16.325Z,49.05
2022-11-29T08:21:18.351Z,47.70
2022-11-29T08:24:19.945Z,41.97
2022-11-29T08:27:21.550Z,38.58
2022-11-29T08:30:23.851Z,35.25
2022-11-29T08:33:25.539Z,32.63
2022-11-29T08:36:27.246Z,34.92
2022-11-29T08:39:28.859Z,30.73
2022-11-29T08:42:30.527Z,189.82
2022-11-29T08:45:32.186Z,228.80
2022-11-29T08:48:34.018Z,64.72
2022-11-29T08:51:35.808Z,47.10
2022-11-29T08:54:37.370Z,150.25
2022-11-29T08:57:40.601Z,59.78
2022-11-29T09:00:45.472Z,38.20
2022-11-29T09:04:10.503Z,109.82
2022-11-29T09:07:12.330Z,34.17
2022-11-29T09:10:13.902Z,30.92
2022-11-29T09:13:18.223Z,27.15
2022-11-29T09:16:22.770Z,42.00
2022-11-29T09:19:24.786Z,38.20
2022-11-29T09:22:26.403Z,28.05
2022-11-29T09:25:28.771Z,31.85
2022-11-29T09:28:30.939Z,26.98
2022-11-29T09:31:33.248Z,19.55
2022-11-29T09:34:35.069Z,22.17
2022-11-29T09:37:37.056Z,33.30
2022-11-29T09:41:08.178Z,23.20
2022-11-29T09:44:22.341Z,20.67
2022-11-29T09:47:56.446Z,17.63
2022-11-29T09:51:17.691Z,22.35
2022-11-29T09:54:45.825Z,26.17
2022-11-29T09:57:49.473Z,21.00
2022-11-29T10:00:56.557Z,24.65
2022-11-29T10:04:03.014Z,36.67
2022-11-29T10:07:18.892Z,21.60
2022-11-29T10:10:31.147Z,36.00
2022-11-29T10:13:35.518Z,20.33
2022-11-29T10:16:56.913Z,16.95
2022-11-29T10:20:13.911Z,18.08
2022-11-29T10:23:23.648Z,18.00
2022-11-29T10:26:28.175Z,14.45
2022-11-29T10:29:33.102Z,16.00
2022-11-29T10:32:34.783Z,12.53
2022-11-29T10:35:37.096Z,14.63
2022-11-29T10:38:38.736Z,13.95
2022-11-29T10:41:40.552Z,17.15
2022-11-29T10:44:42.427Z,20.10
2022-11-29T10:47:48.771Z,15.82
2022-11-29T10:50:52.327Z,16.00
2022-11-29T10:53:54.767Z,16.55
2022-11-29T10:57:01.650Z,11.90
2022-11-29T11:00:10.659Z,13.60
2022-11-29T11:03:48.928Z,12.75
2022-11-29T11:06:59.909Z,14.98
2022-11-29T11:10:15.852Z,14.73
2022-11-29T11:13:25.868Z,19.48
2022-11-29T11:16:30.541Z,19.65
2022-11-29T11:19:34.902Z,18.80
2022-11-29T11:22:39.849Z,17.20
2022-11-29T11:25:41.607Z,15.00
2022-11-29T11:28:54.171Z,18.42
2022-11-29T11:31:57.987Z,11.47
2022-11-29T11:35:01.454Z,10.30
2022-11-29T11:38:03.181Z,9.05
2022-11-29T11:41:16.705Z,7.35
2022-11-29T11:47:54.869Z,7.78
2022-11-29T11:50:59.436Z,9.70
2022-11-29T11:54:01.187Z,7.15
2022-11-29T11:57:03.559Z,15.07
2022-11-29T12:00:07.351Z,10.93
2022-11-29T12:03:33.580Z,5.47
2022-11-29T12:06:54.461Z,7.05
2022-11-29T12:10:01.761Z,8.63
2022-11-29T12:13:05.043Z,5.88
2022-11-29T12:16:19.866Z,16.77
2022-11-29T12:19:27.763Z,13.37
2022-11-29T12:22:37.819Z,9.55
2022-11-29T12:25:46.033Z,9.48
2022-11-29T12:28:48.405Z,8.60
2022-11-29T12:31:59.542Z,5.70
2022-11-29T12:35:50.064Z,6.85
2022-11-29T12:39:00.435Z,7.93
2022-11-29T12:42:36.051Z,5.97
2022-11-29T12:45:52.663Z,10.77
2022-11-29T12:49:13.916Z,4.10
2022-11-29T12:52:48.342Z,3.08
2022-11-29T12:56:04.947Z,4.82
2022-11-29T12:59:44.232Z,8.23
2022-11-29T13:03:02.146Z,4.10
2022-11-29T13:06:22.451Z,4.75
2022-11-29T13:09:32.843Z,3.50
2022-11-29T13:12:50.392Z,6.40
2022-11-29T13:16:06.613Z,5.10
2022-11-29T13:19:08.201Z,6.93
2022-11-29T13:22:27.657Z,7.85
2022-11-29T13:25:41.476Z,7.18
2022-11-29T13:28:46.324Z,9.25
2022-11-29T13:31:48.851Z,3.42
2022-11-29T13:34:51.860Z,10.93
2022-11-29T13:38:17.518Z,9.30
2022-11-29T13:41:32.009Z,5.90
2022-11-29T13:44:39.987Z,15.50
2022-11-29T13:47:49.800Z,9.88
2022-11-29T13:50:51.401Z,5.30
2022-11-29T13:53:55.020Z,3.95
2022-11-29T13:57:06.515Z,5.38
2022-11-29T14:00:26.877Z,6.90
2022-11-29T14:03:38.384Z,3.35
2022-11-29T14:06:40.891Z,6.65
2022-11-29T14:10:16.314Z,14.03
2022-11-29T14:13:18.000Z,7.82
2022-11-29T14:16:42.519Z,9.70
2022-11-29T14:19:44.117Z,4.85
2022-11-29T14:23:04.269Z,10.38
2022-11-29T14:26:05.834Z,5.63
2022-11-29T14:29:45.809Z,8.10
2022-11-29T14:33:08.960Z,8.00
2022-11-29T14:36:41.653Z,7.03
2022-11-29T14:39:49.195Z,7.05
2022-11-29T14:42:53.515Z,4.80
2022-11-29T14:46:08.557Z,5.10
2022-11-29T14:49:22.118Z,6.15
2022-11-29T14:52:28.531Z,7.22
2022-11-29T14:55:36.786Z,8.05
2022-11-29T14:58:38.364Z,7.57
2022-11-29T15:01:45.464Z,8.02
2022-11-29T15:04:51.000Z,6.80
2022-11-29T15:08:28.978Z,9.98
2022-11-29T15:11:43.520Z,5.15
2022-11-29T15:15:06.715Z,6.60
2022-11-29T15:18:50.340Z,9.02
2022-11-29T15:22:11.490Z,9.70
2022-11-29T15:25:17.393Z,14.15
2022-11-29T15:28:27.638Z,16.77
2022-11-29T15:31:32.553Z,34.78
2022-11-29T15:34:40.128Z,88.25
2022-11-29T15:37:44.700Z,53.45
2022-11-29T15:40:55.571Z,77.63
2022-11-29T15:44:05.390Z,31.67
2022-11-29T15:47:29.212Z,53.38
2022-11-29T15:53:47.083Z,31.60
2022-11-29T15:57:05.971Z,22.92
2022-11-29T16:00:15.270Z,24.40
2022-11-29T16:03:45.091Z,16.60
2022-11-29T16:06:49.621Z,14.07
2022-11-29T16:09:58.452Z,14.98
2022-11-29T16:13:07.011Z,16.88
2022-11-29T16:16:17.685Z,14.05
2022-11-29T16:19:25.799Z,10.90
2022-11-29T16:22:27.367Z,9.82
2022-11-29T16:25:33.291Z,12.05
2022-11-29T16:28:44.037Z,11.27
2022-11-29T16:31:45.777Z,10.27
2022-11-29T16:34:47.732Z,8.50
2022-11-29T16:37:49.958Z,13.02
2022-11-29T16:41:07.019Z,11.52
2022-11-29T16:44:43.642Z,11.57
2022-11-29T16:47:58.394Z,13.35
2022-11-29T16:51:15.161Z,14.80
2022-11-29T16:54:28.759Z,17.60
2022-11-29T17:00:33.463Z,21.52
2022-11-29T17:03:35.836Z,16.98
2022-11-29T17:06:38.012Z,20.88
2022-11-29T17:09:39.737Z,19.10
2022-11-29T17:12:46.471Z,11.55
2022-11-29T17:15:49.810Z,14.70
2022-11-29T17:18:52.859Z,18.75
2022-11-29T17:21:54.553Z,17.77
2022-11-29T17:24:56.165Z,12.35
2022-11-29T17:27:58.084Z,13.63
2022-11-29T17:31:07.290Z,15.45
2022-11-29T17:34:08.945Z,17.30
2022-11-29T17:37:13.717Z,11.00
2022-11-29T17:40:15.690Z,15.60
2022-11-29T17:43:17.448Z,12.13
2022-11-29T17:46:26.366Z,17.90
2022-11-29T17:49:28.185Z,21.20
2022-11-29T17:52:29.885Z,21.40
2022-11-29T17:55:31.508Z,38.17
2022-11-29T17:58:33.825Z,28.00
2022-11-29T18:01:36.517Z,28.33
2022-11-29T18:04:41.922Z,43.25
2022-11-29T18:07:57.941Z,25.52
2022-11-29T18:11:07.563Z,24.65
2022-11-29T18:14:11.309Z,32.78
2022-11-29T18:17:13.307Z,31.10
2022-11-29T18:20:15.125Z,19.27
2022-11-29T18:23:16.836Z,17.27
2022-11-29T18:26:20.990Z,20.20
2022-11-29T18:29:23.175Z,41.88
2022-11-29T18:32:24.802Z,30.83
2022-11-29T18:35:27.992Z,37.05
2022-11-29T18:38:29.726Z,26.10
2022-11-29T18:41:31.807Z,31.30
2022-11-29T18:44:33.927Z,34.40
2022-11-29T18:47:35.930Z,27.92
2022-11-29T18:50:37.999Z,28.77
2022-11-29T18:53:40.116Z,30.13
2022-11-29T18:56:43.997Z,44.67
2022-11-29T18:59:46.241Z,30.15
2022-11-29T19:02:50.492Z,21.85
2022-11-29T19:05:55.076Z,26.77
2022-11-29T19:09:01.227Z,22.10
2022-11-29T19:12:03.773Z,24.83
2022-11-29T19:15:05.890Z,19.40
2022-11-29T19:18:07.681Z,36.55
2022-11-29T19:21:14.937Z,32.90
2022-11-29T19:24:18.205Z,22.10
2022-11-29T19:27:26.051Z,22.85
2022-11-29T19:30:27.832Z,29.05
2022-11-29T19:33:32.047Z,26.92
2022-11-29T19:36:35.318Z,24.77
2022-11-29T19:39:38.221Z,39.80
2022-11-29T19:42:39.880Z,27.67
2022-11-29T19:45:41.646Z,12.68
2022-11-29T19:48:44.146Z,18.63
2022-11-29T19:51:46.022Z,16.70
2022-11-29T19:54:47.700Z,20.38
2022-11-29T19:57:49.347Z,14.20
2022-11-29T20:00:51.139Z,19.75
2022-11-29T20:03:52.931Z,28.05
2022-11-29T20:06:54.828Z,16.42
2022-11-29T20:09:56.554Z,22.35
2022-11-29T20:12:58.307Z,43.22
2022-11-29T20:16:09.930Z,25.17
2022-11-29T20:19:14.535Z,21.90
2022-11-29T20:22:16.197Z,20.38
2022-11-29T20:25:18.161Z,20.38
2022-11-29T20:28:23.128Z,26.23
2022-11-29T20:31:25.098Z,21.73
2022-11-29T20:34:27.140Z,41.28
2022-11-29T20:38:08.739Z,29.60
2022-11-29T20:41:23.546Z,27.73
2022-11-29T20:44:38.081Z,27.52
2022-11-29T20:47:58.750Z,28.58
2022-11-29T20:51:02.208Z,28.55
2022-11-29T20:54:04.845Z,22.70
2022-11-29T20:57:06.662Z,25.42
2022-11-29T21:00:11.765Z,27.42
2022-11-29T21:03:18.310Z,21.65
2022-11-29T21:06:20.143Z,26.30
2022-11-29T21:09:21.906Z,28.88
2022-11-29T21:12:26.585Z,23.08
2022-11-29T21:15:28.834Z,27.33
2022-11-29T21:18:31.679Z,28.33
2022-11-29T21:21:45.141Z,25.45
2022-11-29T21:25:05.840Z,28.58
2022-11-29T21:28:15.618Z,26.85
2022-11-29T21:31:18.019Z,28.73
2022-11-29T21:34:20.958Z,35.03
2022-11-29T21:37:27.592Z,28.27
2022-11-29T21:40:29.292Z,29.67
2022-11-29T21:43:58.359Z,30.13
2022-11-29T21:46:52.801Z,37.03
2022-11-29T21:49:54.814Z,64.07
2022-11-29T21:52:56.626Z,81.75
2022-11-29T21:56:00.080Z,29.70
2022-11-29T22:02:04.005Z,30.05
2022-11-29T22:05:07.936Z,33.83
2022-11-29T22:08:09.672Z,31.20
2022-11-29T22:11:17.114Z,31.33
2022-11-29T22:14:19.089Z,32.90
2022-11-29T22:17:20.895Z,33.58
2022-11-29T22:20:22.658Z,31.25
2022-11-29T22:23:24.354Z,37.58
2022-11-29T22:26:25.980Z,39.33
2022-11-29T22:29:28.186Z,37.22
2022-11-29T22:32:29.778Z,35.67
2022-11-29T22:35:31.369Z,44.97
2022-11-29T22:38:33.978Z,45.00
2022-11-29T22:41:37.741Z,52.20
2022-11-29T22:44:39.696Z,43.53
2022-11-29T22:47:41.459Z,45.50
2022-11-29T22:50:43.188Z,41.63
2022-11-29T22:53:52.402Z,42.17
2022-11-29T22:56:54.671Z,47.67
2022-11-29T22:59:56.357Z,51.75
2022-11-29T23:02:57.980Z,46.50
2022-11-29T23:06:09.759Z,44.38
2022-11-29T23:09:19.845Z,50.75
2022-11-29T23:12:21.897Z,51.05
2022-11-29T23:15:23.624Z,43.13
2022-11-29T23:18:25.258Z,48.20
2022-11-29T23:21:32.472Z,48.22
2022-11-29T23:24:34.278Z,42.97
2022-11-29T23:27:35.935Z,42.63
2022-11-29T23:30:37.772Z,40.13
2022-11-29T23:33:39.678Z,41.47
2022-11-29T23:36:41.748Z,44.83
2022-11-29T23:39:43.439Z,42.97
2022-11-29T23:42:47.192Z,48.15
2022-11-29T23:45:49.487Z,46.88
2022-11-29T23:48:54.025Z,41.35
2022-11-29T23:51:55.799Z,47.95
2022-11-29T23:54:57.438Z,45.75
2022-11-29T23:58:01.267Z,46.53
